sensor_id;sensor_type;location;lat;lon;timestamp;pressure;altitude;pressure_sealevel;temperature;humidity
6096;BME280;25081;42.698;23.298;2022-10-16T00:01:03;95902.88;;;8.12;84.65
6096;BME280;25081;42.698;23.298;2022-10-16T00:03:10;95906.08;;;8.07;84.99
6096;BME280;25081;42.698;23.298;2022-10-16T00:05:20;95902.00;;;8.00;84.70
6096;BME280;25081;42.698;23.298;2022-10-16T00:07:31;95907.31;;;8.00;85.23
6096;BME280;25081;42.698;23.298;2022-10-16T00:09:41;95918.19;;;7.95;84.76
6096;BME280;25081;42.698;23.298;2022-10-16T00:11:52;95918.50;;;7.96;84.96
6096;BME280;25081;42.698;23.298;2022-10-16T00:14:03;95921.80;;;7.98;84.72
6096;BME280;25081;42.698;23.298;2022-10-16T00:16:13;95918.13;;;7.99;84.71
6096;BME280;25081;42.698;23.298;2022-10-16T00:18:23;95924.45;;;7.98;84.84
6096;BME280;25081;42.698;23.298;2022-10-16T00:20:35;95923.06;;;7.91;85.25
6096;BME280;25081;42.698;23.298;2022-10-16T00:22:46;95923.88;;;7.92;84.86
6096;BME280;25081;42.698;23.298;2022-10-16T00:24:57;95925.94;;;7.86;84.98
6096;BME280;25081;42.698;23.298;2022-10-16T00:27:07;95925.15;;;7.81;85.23
6096;BME280;25081;42.698;23.298;2022-10-16T00:29:18;95924.01;;;7.80;85.30
6096;BME280;25081;42.698;23.298;2022-10-16T00:31:28;95928.56;;;7.75;85.36
6096;BME280;25081;42.698;23.298;2022-10-16T00:33:39;95931.72;;;7.74;85.18
6096;BME280;25081;42.698;23.298;2022-10-16T00:35:49;95936.39;;;7.72;84.94
6096;BME280;25081;42.698;23.298;2022-10-16T00:38:00;95937.03;;;7.74;84.82
6096;BME280;25081;42.698;23.298;2022-10-16T00:40:11;95936.70;;;7.73;84.61
6096;BME280;25081;42.698;23.298;2022-10-16T00:42:22;95941.73;;;7.68;84.73
6096;BME280;25081;42.698;23.298;2022-10-16T00:44:47;95938.98;;;7.62;85.37
6096;BME280;25081;42.698;23.298;2022-10-16T00:46:57;95933.33;;;7.65;85.25
6096;BME280;25081;42.698;23.298;2022-10-16T00:49:08;95928.92;;;7.57;85.42
6096;BME280;25081;42.698;23.298;2022-10-16T00:51:19;95930.03;;;7.63;85.33
6096;BME280;25081;42.698;23.298;2022-10-16T00:53:29;95931.17;;;7.64;85.17
6096;BME280;25081;42.698;23.298;2022-10-16T00:55:39;95929.84;;;7.64;85.22
6096;BME280;25081;42.698;23.298;2022-10-16T00:57:50;95926.31;;;7.68;84.93
6096;BME280;25081;42.698;23.298;2022-10-16T01:00:01;95925.87;;;7.64;84.85
6096;BME280;25081;42.698;23.298;2022-10-16T01:02:12;95931.89;;;7.58;85.24
6096;BME280;25081;42.698;23.298;2022-10-16T01:04:22;95932.59;;;7.56;85.34
6096;BME280;25081;42.698;23.298;2022-10-16T01:06:35;95935.75;;;7.56;85.33
6096;BME280;25081;42.698;23.298;2022-10-16T01:08:49;95935.56;;;7.57;85.39
6096;BME280;25081;42.698;23.298;2022-10-16T01:11:01;95935.69;;;7.60;85.21
6096;BME280;25081;42.698;23.298;2022-10-16T01:13:11;95939.95;;;7.65;84.81
6096;BME280;25081;42.698;23.298;2022-10-16T01:15:22;95938.98;;;7.62;84.90
6096;BME280;25081;42.698;23.298;2022-10-16T01:17:33;95940.97;;;7.64;84.77
6096;BME280;25081;42.698;23.298;2022-10-16T01:19:52;95940.81;;;7.61;84.96
6096;BME280;25081;42.698;23.298;2022-10-16T01:22:01;95932.84;;;7.61;84.93
6096;BME280;25081;42.698;23.298;2022-10-16T01:24:16;95933.35;;;7.61;85.09
6096;BME280;25081;42.698;23.298;2022-10-16T01:26:37;95933.16;;;7.62;84.99
6096;BME280;25081;42.698;23.298;2022-10-16T01:28:49;95925.27;;;7.58;84.87
6096;BME280;25081;42.698;23.298;2022-10-16T01:30:58;95923.84;;;7.52;85.47
6096;BME280;25081;42.698;23.298;2022-10-16T01:33:10;95925.53;;;7.49;85.46
6096;BME280;25081;42.698;23.298;2022-10-16T01:35:21;95930.23;;;7.42;85.89
6096;BME280;25081;42.698;23.298;2022-10-16T01:37:33;95931.22;;;7.45;85.58
6096;BME280;25081;42.698;23.298;2022-10-16T01:39:44;95932.99;;;7.49;85.07
6096;BME280;25081;42.698;23.298;2022-10-16T01:41:54;95932.36;;;7.47;84.89
6096;BME280;25081;42.698;23.298;2022-10-16T01:44:05;95932.86;;;7.46;84.67
6096;BME280;25081;42.698;23.298;2022-10-16T01:46:15;95926.60;;;7.43;84.90
6096;BME280;25081;42.698;23.298;2022-10-16T01:48:26;95929.52;;;7.34;84.89
6096;BME280;25081;42.698;23.298;2022-10-16T01:50:37;95934.23;;;7.24;85.96
6096;BME280;25081;42.698;23.298;2022-10-16T01:52:48;95940.78;;;7.17;86.42
6096;BME280;25081;42.698;23.298;2022-10-16T01:54:57;95946.80;;;7.11;86.54
6096;BME280;25081;42.698;23.298;2022-10-16T01:57:08;95943.19;;;7.08;86.54
6096;BME280;25081;42.698;23.298;2022-10-16T01:59:20;95943.14;;;7.12;86.57
6096;BME280;25081;42.698;23.298;2022-10-16T02:01:29;95946.42;;;7.14;86.28
6096;BME280;25081;42.698;23.298;2022-10-16T02:03:40;95945.03;;;7.22;86.19
6096;BME280;25081;42.698;23.298;2022-10-16T02:05:51;95948.34;;;7.24;85.58
6096;BME280;25081;42.698;23.298;2022-10-16T02:08:01;95952.80;;;7.24;85.62
6096;BME280;25081;42.698;23.298;2022-10-16T02:10:12;95956.44;;;7.27;85.68
6096;BME280;25081;42.698;23.298;2022-10-16T02:12:23;95956.89;;;7.30;85.63
6096;BME280;25081;42.698;23.298;2022-10-16T02:14:33;95951.13;;;7.27;85.19
6096;BME280;25081;42.698;23.298;2022-10-16T02:16:44;95953.66;;;7.24;85.71
6096;BME280;25081;42.698;23.298;2022-10-16T02:18:54;95960.44;;;7.23;85.34
6096;BME280;25081;42.698;23.298;2022-10-16T02:21:07;95960.19;;;7.13;85.84
6096;BME280;25081;42.698;23.298;2022-10-16T02:23:17;95970.16;;;7.11;85.67
6096;BME280;25081;42.698;23.298;2022-10-16T02:25:27;95973.86;;;7.06;85.81
6096;BME280;25081;42.698;23.298;2022-10-16T02:27:38;95974.38;;;7.02;86.23
6096;BME280;25081;42.698;23.298;2022-10-16T02:29:49;95967.16;;;6.96;86.78
6096;BME280;25081;42.698;23.298;2022-10-16T02:31:59;95983.40;;;6.93;86.50
6096;BME280;25081;42.698;23.298;2022-10-16T02:34:09;95982.70;;;6.99;86.33
6096;BME280;25081;42.698;23.298;2022-10-16T02:36:20;95974.70;;;7.03;86.26
6096;BME280;25081;42.698;23.298;2022-10-16T02:38:31;95972.42;;;7.00;86.33
6096;BME280;25081;42.698;23.298;2022-10-16T02:40:41;95969.64;;;6.93;86.37
6096;BME280;25081;42.698;23.298;2022-10-16T02:42:52;95973.86;;;6.83;87.01
6096;BME280;25081;42.698;23.298;2022-10-16T02:45:02;95980.48;;;6.83;87.17
6096;BME280;25081;42.698;23.298;2022-10-16T02:47:13;95979.47;;;6.88;86.67
6096;BME280;25081;42.698;23.298;2022-10-16T02:49:23;95985.27;;;6.88;86.28
6096;BME280;25081;42.698;23.298;2022-10-16T02:51:34;95982.80;;;6.86;86.14
6096;BME280;25081;42.698;23.298;2022-10-16T02:53:44;95985.61;;;6.85;86.27
6096;BME280;25081;42.698;23.298;2022-10-16T02:55:55;95991.77;;;6.81;86.28
6096;BME280;25081;42.698;23.298;2022-10-16T02:58:05;95996.48;;;6.71;86.84
6096;BME280;25081;42.698;23.298;2022-10-16T03:00:16;96000.50;;;6.67;86.94
6096;BME280;25081;42.698;23.298;2022-10-16T03:02:27;96003.75;;;6.73;86.56
6096;BME280;25081;42.698;23.298;2022-10-16T03:04:37;96001.50;;;6.66;86.47
6096;BME280;25081;42.698;23.298;2022-10-16T03:06:48;95998.03;;;6.62;86.94
6096;BME280;25081;42.698;23.298;2022-10-16T03:08:58;96003.19;;;6.59;87.34
6096;BME280;25081;42.698;23.298;2022-10-16T03:11:09;96000.41;;;6.56;87.16
6096;BME280;25081;42.698;23.298;2022-10-16T03:13:19;95998.58;;;6.57;87.00
6096;BME280;25081;42.698;23.298;2022-10-16T03:15:30;95998.58;;;6.53;86.84
6096;BME280;25081;42.698;23.298;2022-10-16T03:17:41;95995.42;;;6.57;87.22
6096;BME280;25081;42.698;23.298;2022-10-16T03:19:51;96001.19;;;6.61;86.81
6096;BME280;25081;42.698;23.298;2022-10-16T03:22:01;96001.05;;;6.58;86.46
6096;BME280;25081;42.698;23.298;2022-10-16T03:24:12;96000.41;;;6.56;86.71
6096;BME280;25081;42.698;23.298;2022-10-16T03:26:22;95998.22;;;6.60;86.78
6096;BME280;25081;42.698;23.298;2022-10-16T03:28:33;96010.60;;;6.64;86.56
6096;BME280;25081;42.698;23.298;2022-10-16T03:30:44;96014.39;;;6.65;86.33
6096;BME280;25081;42.698;23.298;2022-10-16T03:32:55;96012.97;;;6.58;86.21
6096;BME280;25081;42.698;23.298;2022-10-16T03:35:07;96009.17;;;6.57;86.16
6096;BME280;25081;42.698;23.298;2022-10-16T03:37:17;96009.49;;;6.58;86.06
6096;BME280;25081;42.698;23.298;2022-10-16T03:39:28;96007.17;;;6.55;86.05
6096;BME280;25081;42.698;23.298;2022-10-16T03:41:38;96004.52;;;6.55;86.26
6096;BME280;25081;42.698;23.298;2022-10-16T03:43:49;96011.82;;;6.57;86.86
6096;BME280;25081;42.698;23.298;2022-10-16T03:45:59;96011.65;;;6.54;87.26
6096;BME280;25081;42.698;23.298;2022-10-16T03:48:09;96006.80;;;6.66;86.83
6096;BME280;25081;42.698;23.298;2022-10-16T03:50:20;96010.14;;;6.60;86.37
6096;BME280;25081;42.698;23.298;2022-10-16T03:52:31;96002.05;;;6.57;86.06
6096;BME280;25081;42.698;23.298;2022-10-16T03:54:42;96005.96;;;6.39;87.09
6096;BME280;25081;42.698;23.298;2022-10-16T03:56:52;96005.79;;;6.36;87.43
6096;BME280;25081;42.698;23.298;2022-10-16T03:59:03;96003.31;;;6.39;87.49
6096;BME280;25081;42.698;23.298;2022-10-16T04:01:13;96006.14;;;6.37;87.25
6096;BME280;25081;42.698;23.298;2022-10-16T04:03:24;96002.64;;;6.37;87.24
6096;BME280;25081;42.698;23.298;2022-10-16T04:05:34;96002.81;;;6.35;87.14
6096;BME280;25081;42.698;23.298;2022-10-16T04:07:45;96005.00;;;6.31;87.42
6096;BME280;25081;42.698;23.298;2022-10-16T04:09:55;96007.69;;;6.27;87.45
6096;BME280;25081;42.698;23.298;2022-10-16T04:12:06;96009.54;;;6.19;87.66
6096;BME280;25081;42.698;23.298;2022-10-16T04:14:16;96002.09;;;6.14;88.02
6096;BME280;25081;42.698;23.298;2022-10-16T04:16:27;96004.24;;;6.15;88.37
6096;BME280;25081;42.698;23.298;2022-10-16T04:18:37;96003.06;;;6.17;88.52
6096;BME280;25081;42.698;23.298;2022-10-16T04:20:48;96006.75;;;6.12;88.76
6096;BME280;25081;42.698;23.298;2022-10-16T04:22:58;96007.54;;;6.17;88.76
6096;BME280;25081;42.698;23.298;2022-10-16T04:25:09;96008.04;;;6.20;88.24
6096;BME280;25081;42.698;23.298;2022-10-16T04:27:20;96006.54;;;6.22;87.82
6096;BME280;25081;42.698;23.298;2022-10-16T04:29:30;96011.01;;;6.21;87.64
6096;BME280;25081;42.698;23.298;2022-10-16T04:31:41;96008.22;;;6.19;87.57
6096;BME280;25081;42.698;23.298;2022-10-16T04:33:51;96015.48;;;6.21;87.49
6096;BME280;25081;42.698;23.298;2022-10-16T04:36:02;96016.30;;;6.21;87.41
6096;BME280;25081;42.698;23.298;2022-10-16T04:38:12;96020.63;;;6.18;87.28
6096;BME280;25081;42.698;23.298;2022-10-16T04:40:23;96017.63;;;6.21;87.16
6096;BME280;25081;42.698;23.298;2022-10-16T04:42:33;96013.01;;;6.15;86.65
6096;BME280;25081;42.698;23.298;2022-10-16T04:44:44;96019.48;;;6.13;87.05
6096;BME280;25081;42.698;23.298;2022-10-16T04:46:54;96016.52;;;6.12;87.05
6096;BME280;25081;42.698;23.298;2022-10-16T04:49:05;96024.13;;;6.11;86.72
6096;BME280;25081;42.698;23.298;2022-10-16T04:51:16;96027.89;;;6.16;87.01
6096;BME280;25081;42.698;23.298;2022-10-16T04:53:26;96030.55;;;6.20;86.84
6096;BME280;25081;42.698;23.298;2022-10-16T04:55:37;96030.66;;;6.27;86.68
6096;BME280;25081;42.698;23.298;2022-10-16T04:57:47;96035.27;;;6.37;86.40
6096;BME280;25081;42.698;23.298;2022-10-16T04:59:57;96036.38;;;6.43;86.28
6096;BME280;25081;42.698;23.298;2022-10-16T05:02:08;96043.86;;;6.39;85.48
6096;BME280;25081;42.698;23.298;2022-10-16T05:04:18;96046.33;;;6.41;85.66
6096;BME280;25081;42.698;23.298;2022-10-16T05:06:29;96043.04;;;6.39;86.35
6096;BME280;25081;42.698;23.298;2022-10-16T05:08:40;96047.59;;;6.53;85.98
6096;BME280;25081;42.698;23.298;2022-10-16T05:10:50;96053.63;;;6.66;85.54
6096;BME280;25081;42.698;23.298;2022-10-16T05:13:01;96050.84;;;6.67;85.16
6096;BME280;25081;42.698;23.298;2022-10-16T05:15:12;96049.30;;;6.73;85.03
6096;BME280;25081;42.698;23.298;2022-10-16T05:17:22;96055.92;;;6.73;84.58
6096;BME280;25081;42.698;23.298;2022-10-16T05:19:33;96055.64;;;6.64;85.17
6096;BME280;25081;42.698;23.298;2022-10-16T05:21:43;96060.97;;;6.59;85.48
6096;BME280;25081;42.698;23.298;2022-10-16T05:23:55;96061.91;;;6.71;85.23
6096;BME280;25081;42.698;23.298;2022-10-16T05:26:05;96056.92;;;6.72;84.99
6096;BME280;25081;42.698;23.298;2022-10-16T05:28:16;96061.21;;;6.77;84.94
6096;BME280;25081;42.698;23.298;2022-10-16T05:30:26;96063.19;;;6.79;84.82
6096;BME280;25081;42.698;23.298;2022-10-16T05:32:37;96067.44;;;6.84;84.92
6096;BME280;25081;42.698;23.298;2022-10-16T05:34:47;96066.94;;;6.84;84.84
6096;BME280;25081;42.698;23.298;2022-10-16T05:36:58;96064.60;;;6.89;84.74
6096;BME280;25081;42.698;23.298;2022-10-16T05:39:08;96066.84;;;7.01;84.94
6096;BME280;25081;42.698;23.298;2022-10-16T05:41:19;96061.18;;;7.04;84.18
6096;BME280;25081;42.698;23.298;2022-10-16T05:43:29;96070.89;;;7.15;84.02
6096;BME280;25081;42.698;23.298;2022-10-16T05:45:40;96073.05;;;7.16;83.62
6096;BME280;25081;42.698;23.298;2022-10-16T05:47:50;96067.00;;;7.26;83.65
6096;BME280;25081;42.698;23.298;2022-10-16T05:50:01;96072.30;;;7.26;83.30
6096;BME280;25081;42.698;23.298;2022-10-16T05:52:11;96080.72;;;7.30;83.52
6096;BME280;25081;42.698;23.298;2022-10-16T05:54:22;96078.78;;;7.42;83.26
6096;BME280;25081;42.698;23.298;2022-10-16T05:56:32;96081.36;;;7.55;83.22
6096;BME280;25081;42.698;23.298;2022-10-16T05:58:43;96080.12;;;7.61;82.75
6096;BME280;25081;42.698;23.298;2022-10-16T06:00:58;96084.03;;;7.69;82.12
6096;BME280;25081;42.698;23.298;2022-10-16T06:03:08;96086.34;;;7.72;82.40
6096;BME280;25081;42.698;23.298;2022-10-16T06:05:19;96085.79;;;7.77;82.13
6096;BME280;25081;42.698;23.298;2022-10-16T06:07:33;96089.70;;;7.85;81.98
6096;BME280;25081;42.698;23.298;2022-10-16T06:09:40;96091.40;;;7.97;81.86
6096;BME280;25081;42.698;23.298;2022-10-16T06:11:51;96096.45;;;8.07;81.26
6096;BME280;25081;42.698;23.298;2022-10-16T06:14:01;96095.86;;;8.15;80.93
6096;BME280;25081;42.698;23.298;2022-10-16T06:16:12;96103.61;;;8.21;80.54
6096;BME280;25081;42.698;23.298;2022-10-16T06:18:22;96107.23;;;8.24;80.36
6096;BME280;25081;42.698;23.298;2022-10-16T06:20:33;96107.30;;;8.35;80.33
6096;BME280;25081;42.698;23.298;2022-10-16T06:22:43;96104.55;;;8.43;79.72
6096;BME280;25081;42.698;23.298;2022-10-16T06:24:54;96102.88;;;8.56;79.40
6096;BME280;25081;42.698;23.298;2022-10-16T06:27:05;96107.91;;;8.66;79.02
6096;BME280;25081;42.698;23.298;2022-10-16T06:29:15;96109.77;;;8.76;78.59
6096;BME280;25081;42.698;23.298;2022-10-16T06:31:26;96111.31;;;8.85;77.79
6096;BME280;25081;42.698;23.298;2022-10-16T06:33:37;96109.58;;;8.78;77.96
6096;BME280;25081;42.698;23.298;2022-10-16T06:35:47;96116.09;;;8.90;77.88
6096;BME280;25081;42.698;23.298;2022-10-16T06:37:57;96116.34;;;8.95;77.27
6096;BME280;25081;42.698;23.298;2022-10-16T06:40:09;96119.00;;;8.95;77.08
6096;BME280;25081;42.698;23.298;2022-10-16T06:42:19;96125.03;;;9.04;76.83
6096;BME280;25081;42.698;23.298;2022-10-16T06:44:30;96124.19;;;9.18;76.62
6096;BME280;25081;42.698;23.298;2022-10-16T06:46:40;96120.43;;;9.12;76.46
6096;BME280;25081;42.698;23.298;2022-10-16T06:48:51;96125.67;;;9.16;76.52
6096;BME280;25081;42.698;23.298;2022-10-16T06:51:02;96133.85;;;9.15;76.33
6096;BME280;25081;42.698;23.298;2022-10-16T06:53:12;96134.02;;;9.28;76.13
6096;BME280;25081;42.698;23.298;2022-10-16T06:55:22;96134.27;;;9.44;75.50
6096;BME280;25081;42.698;23.298;2022-10-16T06:57:33;96138.25;;;9.44;74.78
6096;BME280;25081;42.698;23.298;2022-10-16T06:59:43;96135.55;;;9.59;74.65
6096;BME280;25081;42.698;23.298;2022-10-16T07:01:54;96141.38;;;9.58;74.50
6096;BME280;25081;42.698;23.298;2022-10-16T07:04:05;96143.53;;;9.48;74.82
6096;BME280;25081;42.698;23.298;2022-10-16T07:06:16;96139.14;;;9.72;74.73
6096;BME280;25081;42.698;23.298;2022-10-16T07:08:26;96136.16;;;10.83;70.27
6096;BME280;25081;42.698;23.298;2022-10-16T07:10:36;96133.38;;;13.55;61.69
6096;BME280;25081;42.698;23.298;2022-10-16T07:12:47;96133.20;;;15.48;57.45
6096;BME280;25081;42.698;23.298;2022-10-16T07:14:58;96132.91;;;17.81;50.13
6096;BME280;25081;42.698;23.298;2022-10-16T07:17:08;96116.79;;;20.28;44.42
6096;BME280;25081;42.698;23.298;2022-10-16T07:19:18;96116.79;;;20.28;44.42
6096;BME280;25081;42.698;23.298;2022-10-16T07:21:30;96121.68;;;21.05;39.50
6096;BME280;25081;42.698;23.298;2022-10-16T07:23:40;96115.91;;;21.47;37.93
6096;BME280;25081;42.698;23.298;2022-10-16T07:25:55;96121.13;;;21.71;38.13
6096;BME280;25081;42.698;23.298;2022-10-16T07:28:06;96114.73;;;22.46;36.63
6096;BME280;25081;42.698;23.298;2022-10-16T07:30:17;96118.83;;;22.33;37.16
6096;BME280;25081;42.698;23.298;2022-10-16T07:32:27;96120.86;;;21.65;37.34
6096;BME280;25081;42.698;23.298;2022-10-16T07:34:38;96123.08;;;23.16;35.40
6096;BME280;25081;42.698;23.298;2022-10-16T07:36:49;96124.23;;;24.18;33.08
6096;BME280;25081;42.698;23.298;2022-10-16T07:39:00;96120.03;;;25.02;32.23
6096;BME280;25081;42.698;23.298;2022-10-16T07:41:11;96120.66;;;24.91;31.69
6096;BME280;25081;42.698;23.298;2022-10-16T07:43:21;96116.92;;;25.59;30.48
6096;BME280;25081;42.698;23.298;2022-10-16T07:45:32;96114.77;;;25.08;30.62
6096;BME280;25081;42.698;23.298;2022-10-16T07:47:43;96116.34;;;25.83;30.21
6096;BME280;25081;42.698;23.298;2022-10-16T07:49:53;96113.27;;;26.44;28.50
6096;BME280;25081;42.698;23.298;2022-10-16T07:52:04;96114.34;;;26.62;28.47
6096;BME280;25081;42.698;23.298;2022-10-16T07:54:14;96122.30;;;25.88;29.07
6096;BME280;25081;42.698;23.298;2022-10-16T07:56:25;96124.81;;;22.40;33.76
6096;BME280;25081;42.698;23.298;2022-10-16T07:58:35;96136.42;;;24.28;31.80
6096;BME280;25081;42.698;23.298;2022-10-16T08:00:47;96127.08;;;25.96;30.02
6096;BME280;25081;42.698;23.298;2022-10-16T08:02:58;96126.35;;;26.96;27.71
6096;BME280;25081;42.698;23.298;2022-10-16T08:05:10;96131.68;;;26.73;28.53
6096;BME280;25081;42.698;23.298;2022-10-16T08:07:20;96124.27;;;27.06;28.06
6096;BME280;25081;42.698;23.298;2022-10-16T08:09:31;96133.86;;;23.49;31.88
6096;BME280;25081;42.698;23.298;2022-10-16T08:11:42;96129.16;;;22.41;34.12
6096;BME280;25081;42.698;23.298;2022-10-16T08:13:52;96132.39;;;22.38;34.91
6096;BME280;25081;42.698;23.298;2022-10-16T08:16:03;96127.63;;;24.00;32.66
6096;BME280;25081;42.698;23.298;2022-10-16T08:18:14;96126.58;;;24.38;31.17
6096;BME280;25081;42.698;23.298;2022-10-16T08:20:24;96123.30;;;23.37;33.67
6096;BME280;25081;42.698;23.298;2022-10-16T08:22:34;96118.81;;;22.89;34.08
6096;BME280;25081;42.698;23.298;2022-10-16T08:24:45;96116.60;;;22.83;34.09
6096;BME280;25081;42.698;23.298;2022-10-16T08:26:56;96125.48;;;23.92;32.11
6096;BME280;25081;42.698;23.298;2022-10-16T08:29:06;96116.70;;;25.31;29.96
6096;BME280;25081;42.698;23.298;2022-10-16T08:31:16;96119.82;;;23.13;32.96
6096;BME280;25081;42.698;23.298;2022-10-16T08:33:27;96122.63;;;24.54;31.14
6096;BME280;25081;42.698;23.298;2022-10-16T08:35:37;96116.09;;;22.69;33.32
6096;BME280;25081;42.698;23.298;2022-10-16T08:37:48;96122.84;;;22.03;34.79
6096;BME280;25081;42.698;23.298;2022-10-16T08:40:00;96121.80;;;23.70;32.49
6096;BME280;25081;42.698;23.298;2022-10-16T08:42:21;96114.19;;;25.59;29.70
6096;BME280;25081;42.698;23.298;2022-10-16T08:47:29;96112.83;;;26.37;28.71
6096;BME280;25081;42.698;23.298;2022-10-16T08:49:47;96109.10;;;26.65;28.56
6096;BME280;25081;42.698;23.298;2022-10-16T08:51:48;96108.84;;;26.48;28.52
6096;BME280;25081;42.698;23.298;2022-10-16T08:53:59;96120.53;;;26.16;28.64
6096;BME280;25081;42.698;23.298;2022-10-16T08:56:10;96126.22;;;23.56;31.21
6096;BME280;25081;42.698;23.298;2022-10-16T08:58:21;96128.33;;;22.13;35.39
6096;BME280;25081;42.698;23.298;2022-10-16T09:00:31;96128.35;;;20.88;36.75
6096;BME280;25081;42.698;23.298;2022-10-16T09:02:43;96131.11;;;21.50;35.48
6096;BME280;25081;42.698;23.298;2022-10-16T09:07:39;96135.34;;;19.87;38.01
6096;BME280;25081;42.698;23.298;2022-10-16T09:10:05;96136.94;;;18.96;38.63
6096;BME280;25081;42.698;23.298;2022-10-16T09:12:16;96137.31;;;19.94;35.95
6096;BME280;25081;42.698;23.298;2022-10-16T09:14:37;96138.18;;;20.27;35.29
6096;BME280;25081;42.698;23.298;2022-10-16T09:16:48;96134.88;;;19.03;38.50
6096;BME280;25081;42.698;23.298;2022-10-16T09:19:00;96126.80;;;20.57;36.17
6096;BME280;25081;42.698;23.298;2022-10-16T09:21:11;96115.28;;;22.89;33.54
6096;BME280;25081;42.698;23.298;2022-10-16T09:23:24;96117.78;;;21.41;33.59
6096;BME280;25081;42.698;23.298;2022-10-16T09:25:33;96120.48;;;20.86;34.46
6096;BME280;25081;42.698;23.298;2022-10-16T09:27:45;96125.06;;;19.19;36.83
6096;BME280;25081;42.698;23.298;2022-10-16T09:29:54;96132.39;;;19.62;35.96
6096;BME280;25081;42.698;23.298;2022-10-16T09:32:11;96125.19;;;19.29;36.94
6096;BME280;25081;42.698;23.298;2022-10-16T09:34:24;96129.60;;;19.35;36.75
6096;BME280;25081;42.698;23.298;2022-10-16T09:36:35;96121.52;;;22.15;32.57
6096;BME280;25081;42.698;23.298;2022-10-16T09:38:44;96118.50;;;24.22;29.45
6096;BME280;25081;42.698;23.298;2022-10-16T09:40:54;96115.67;;;25.25;28.04
6096;BME280;25081;42.698;23.298;2022-10-16T09:43:15;96120.92;;;24.92;27.90
6096;BME280;25081;42.698;23.298;2022-10-16T09:45:24;96117.66;;;23.10;30.61
6096;BME280;25081;42.698;23.298;2022-10-16T09:47:35;96117.72;;;23.70;30.17
6096;BME280;25081;42.698;23.298;2022-10-16T09:49:52;96118.45;;;24.64;29.86
6096;BME280;25081;42.698;23.298;2022-10-16T09:52:11;96104.03;;;25.40;28.38
6096;BME280;25081;42.698;23.298;2022-10-16T09:54:17;96095.25;;;25.44;27.52
6096;BME280;25081;42.698;23.298;2022-10-16T09:56:28;96097.53;;;25.13;27.69
6096;BME280;25081;42.698;23.298;2022-10-16T09:58:37;96095.56;;;24.63;28.33
6096;BME280;25081;42.698;23.298;2022-10-16T10:00:51;96099.30;;;25.46;27.47
6096;BME280;25081;42.698;23.298;2022-10-16T10:03:01;96103.59;;;24.78;27.91
6096;BME280;25081;42.698;23.298;2022-10-16T10:05:20;96101.36;;;23.03;30.70
6096;BME280;25081;42.698;23.298;2022-10-16T10:07:30;96093.05;;;23.41;30.09
6096;BME280;25081;42.698;23.298;2022-10-16T10:09:42;96099.49;;;24.10;29.95
6096;BME280;25081;42.698;23.298;2022-10-16T10:11:52;96091.27;;;23.78;29.63
6096;BME280;25081;42.698;23.298;2022-10-16T10:14:06;96093.50;;;22.91;31.74
6096;BME280;25081;42.698;23.298;2022-10-16T10:16:25;96089.83;;;23.36;30.84
6096;BME280;25081;42.698;23.298;2022-10-16T10:18:36;96100.52;;;21.05;34.74
6096;BME280;25081;42.698;23.298;2022-10-16T10:20:46;96092.13;;;21.87;33.65
6096;BME280;25081;42.698;23.298;2022-10-16T10:22:57;96090.79;;;22.73;32.60
6096;BME280;25081;42.698;23.298;2022-10-16T10:25:22;96093.08;;;23.38;31.58
6096;BME280;25081;42.698;23.298;2022-10-16T10:27:37;96091.37;;;23.50;31.08
6096;BME280;25081;42.698;23.298;2022-10-16T10:29:49;96090.41;;;20.93;35.22
6096;BME280;25081;42.698;23.298;2022-10-16T10:32:02;96086.16;;;21.87;33.50
6096;BME280;25081;42.698;23.298;2022-10-16T10:34:17;96078.50;;;21.56;34.40
6096;BME280;25081;42.698;23.298;2022-10-16T10:36:32;96082.86;;;21.67;33.99
6096;BME280;25081;42.698;23.298;2022-10-16T10:38:43;96087.78;;;19.67;38.08
6096;BME280;25081;42.698;23.298;2022-10-16T10:40:55;96081.63;;;20.01;37.07
6096;BME280;25081;42.698;23.298;2022-10-16T10:43:06;96078.57;;;19.41;38.08
6096;BME280;25081;42.698;23.298;2022-10-16T10:45:21;96066.40;;;21.17;36.99
6096;BME280;25081;42.698;23.298;2022-10-16T10:47:35;96065.51;;;21.01;36.18
6096;BME280;25081;42.698;23.298;2022-10-16T10:49:49;96054.92;;;21.72;34.95
6096;BME280;25081;42.698;23.298;2022-10-16T10:52:02;96058.73;;;21.96;34.04
6096;BME280;25081;42.698;23.298;2022-10-16T10:54:15;96062.84;;;21.06;35.43
6096;BME280;25081;42.698;23.298;2022-10-16T10:56:35;96065.80;;;19.36;38.30
6096;BME280;25081;42.698;23.298;2022-10-16T10:58:48;96061.67;;;20.10;37.67
6096;BME280;25081;42.698;23.298;2022-10-16T11:00:57;96053.17;;;20.73;36.60
6096;BME280;25081;42.698;23.298;2022-10-16T11:03:09;96050.98;;;20.67;36.65
6096;BME280;25081;42.698;23.298;2022-10-16T11:05:28;96049.91;;;20.73;37.17
6096;BME280;25081;42.698;23.298;2022-10-16T11:07:39;96052.56;;;20.58;37.82
6096;BME280;25081;42.698;23.298;2022-10-16T11:09:49;96052.37;;;18.76;40.08
6096;BME280;25081;42.698;23.298;2022-10-16T11:12:00;96097.77;;;18.43;40.67
6096;BME280;25081;42.698;23.298;2022-10-16T11:14:14;96055.17;;;17.35;42.24
6096;BME280;25081;42.698;23.298;2022-10-16T11:16:25;96049.95;;;16.88;43.50
6096;BME280;25081;42.698;23.298;2022-10-16T11:18:39;96049.95;;;16.88;43.50
6096;BME280;25081;42.698;23.298;2022-10-16T11:20:51;96035.45;;;17.32;42.31
6096;BME280;25081;42.698;23.298;2022-10-16T11:23:01;96045.11;;;17.44;42.29
6096;BME280;25081;42.698;23.298;2022-10-16T11:25:14;96042.12;;;17.72;42.97
6096;BME280;25081;42.698;23.298;2022-10-16T11:27:33;96044.63;;;16.91;44.89
6096;BME280;25081;42.698;23.298;2022-10-16T11:29:35;96044.63;;;16.91;44.89
6096;BME280;25081;42.698;23.298;2022-10-16T11:31:46;96038.83;;;18.01;42.78
6096;BME280;25081;42.698;23.298;2022-10-16T11:33:59;96023.72;;;17.38;43.37
6096;BME280;25081;42.698;23.298;2022-10-16T11:36:14;96042.20;;;17.63;41.51
6096;BME280;25081;42.698;23.298;2022-10-16T11:38:25;96042.20;;;17.63;41.51
6096;BME280;25081;42.698;23.298;2022-10-16T11:40:34;96039.78;;;16.90;43.58
6096;BME280;25081;42.698;23.298;2022-10-16T11:42:46;96039.00;;;17.06;42.81
6096;BME280;25081;42.698;23.298;2022-10-16T11:44:57;96047.55;;;17.74;42.03
6096;BME280;25081;42.698;23.298;2022-10-16T11:47:12;96047.55;;;17.74;42.03